logo
Search for airport 
image banner adimage banner adimage banner ad
image banner ad

LF1751 - Corme Ecluse

Located in Corme Ecluse, France

ICAO - , IATA -

Data provided by Airmate  

General information

Coordinates: N45°37'15" W0°51'5"
Elevation is 98 feet MSL.
 
View others Airports in Poitou-Charentes

Operational data

Special qualification required
Current time UTC:
Current local time:
Weather at : LFBG - Cognac Chateaubernard ( 42 km )
METAR: LFBG 242000Z AUTO 11003KT CAVOK 17/11 Q1020
View NOTAMs / SUP AIP / TFR affecting this airport [VIEW]
Communications frequencies: [VIEW]

Runways:

RWY identifierQFULength (ft)Width (ft)SurfaceLDA (ft)
11118165GRASS
29118165GRASS

Airport contact information

Address: Corme Ecluse France

Satellite view of LF1751